sensor_id;sensor_type;location;lat;lon;timestamp;P1;durP1;ratioP1;P2;durP2;ratioP2
50821;SDS011;36794;51.212;6.980;2023-11-22T00:00:05;19.07;;;11.50;;
50821;SDS011;36794;51.212;6.980;2023-11-22T00:02:32;22.27;;;12.77;;
50821;SDS011;36794;51.212;6.980;2023-11-22T00:04:58;20.20;;;12.27;;
50821;SDS011;36794;51.212;6.980;2023-11-22T00:07:24;17.63;;;11.43;;
50821;SDS011;36794;51.212;6.980;2023-11-22T00:09:52;19.70;;;12.03;;
50821;SDS011;36794;51.212;6.980;2023-11-22T00:12:18;18.00;;;11.57;;
50821;SDS011;36794;51.212;6.980;2023-11-22T00:14:44;19.80;;;12.33;;
50821;SDS011;36794;51.212;6.980;2023-11-22T00:17:12;21.23;;;12.27;;
50821;SDS011;36794;51.212;6.980;2023-11-22T00:19:38;17.87;;;11.37;;
50821;SDS011;36794;51.212;6.980;2023-11-22T00:22:04;22.50;;;11.83;;
50821;SDS011;36794;51.212;6.980;2023-11-22T00:24:38;17.55;;;11.43;;
50821;SDS011;36794;51.212;6.980;2023-11-22T00:27:04;18.60;;;11.17;;
50821;SDS011;36794;51.212;6.980;2023-11-22T00:29:31;21.63;;;11.97;;
50821;SDS011;36794;51.212;6.980;2023-11-22T00:31:57;16.07;;;10.07;;
50821;SDS011;36794;51.212;6.980;2023-11-22T00:34:23;16.37;;;10.23;;
50821;SDS011;36794;51.212;6.980;2023-11-22T00:36:49;15.93;;;9.10;;
50821;SDS011;36794;51.212;6.980;2023-11-22T00:39:16;13.87;;;8.57;;
50821;SDS011;36794;51.212;6.980;2023-11-22T00:41:42;12.33;;;8.60;;
50821;SDS011;36794;51.212;6.980;2023-11-22T00:44:09;14.80;;;9.13;;
50821;SDS011;36794;51.212;6.980;2023-11-22T00:46:35;15.50;;;9.07;;
50821;SDS011;36794;51.212;6.980;2023-11-22T00:49:04;12.10;;;7.27;;
50821;SDS011;36794;51.212;6.980;2023-11-22T00:51:31;14.13;;;8.50;;
50821;SDS011;36794;51.212;6.980;2023-11-22T00:53:57;13.93;;;8.27;;
50821;SDS011;36794;51.212;6.980;2023-11-22T00:56:24;11.27;;;7.77;;
50821;SDS011;36794;51.212;6.980;2023-11-22T00:58:50;11.27;;;7.63;;
50821;SDS011;36794;51.212;6.980;2023-11-22T01:01:18;11.70;;;7.53;;
50821;SDS011;36794;51.212;6.980;2023-11-22T01:03:44;14.30;;;8.27;;
50821;SDS011;36794;51.212;6.980;2023-11-22T01:06:10;11.67;;;7.97;;
50821;SDS011;36794;51.212;6.980;2023-11-22T01:08:35;13.30;;;8.07;;
50821;SDS011;36794;51.212;6.980;2023-11-22T01:11:02;12.60;;;8.40;;
50821;SDS011;36794;51.212;6.980;2023-11-22T01:13:32;13.67;;;7.97;;
50821;SDS011;36794;51.212;6.980;2023-11-22T01:16:05;13.23;;;8.10;;
50821;SDS011;36794;51.212;6.980;2023-11-22T01:18:31;9.70;;;7.17;;
50821;SDS011;36794;51.212;6.980;2023-11-22T01:20:57;14.60;;;8.23;;
50821;SDS011;36794;51.212;6.980;2023-11-22T01:23:23;13.70;;;8.63;;
50821;SDS011;36794;51.212;6.980;2023-11-22T01:25:49;13.23;;;8.40;;
50821;SDS011;36794;51.212;6.980;2023-11-22T01:28:15;11.77;;;8.53;;
50821;SDS011;36794;51.212;6.980;2023-11-22T01:30:42;11.23;;;8.03;;
50821;SDS011;36794;51.212;6.980;2023-11-22T01:33:10;15.17;;;9.43;;
50821;SDS011;36794;51.212;6.980;2023-11-22T01:35:36;15.27;;;8.43;;
50821;SDS011;36794;51.212;6.980;2023-11-22T01:38:03;14.63;;;8.90;;
50821;SDS011;36794;51.212;6.980;2023-11-22T01:40:29;18.37;;;9.70;;
50821;SDS011;36794;51.212;6.980;2023-11-22T01:42:55;16.47;;;9.40;;
50821;SDS011;36794;51.212;6.980;2023-11-22T01:45:21;18.47;;;9.77;;
50821;SDS011;36794;51.212;6.980;2023-11-22T01:47:47;14.90;;;9.93;;
50821;SDS011;36794;51.212;6.980;2023-11-22T01:50:13;17.33;;;10.23;;
50821;SDS011;36794;51.212;6.980;2023-11-22T01:52:40;14.37;;;9.93;;
50821;SDS011;36794;51.212;6.980;2023-11-22T01:55:07;17.37;;;9.93;;
50821;SDS011;36794;51.212;6.980;2023-11-22T01:57:34;13.60;;;9.77;;
50821;SDS011;36794;51.212;6.980;2023-11-22T02:00:03;17.87;;;9.30;;
50821;SDS011;36794;51.212;6.980;2023-11-22T02:02:32;17.57;;;9.57;;
50821;SDS011;36794;51.212;6.980;2023-11-22T02:04:59;16.40;;;10.10;;
50821;SDS011;36794;51.212;6.980;2023-11-22T02:07:28;17.37;;;10.57;;
50821;SDS011;36794;51.212;6.980;2023-11-22T02:09:54;15.93;;;10.13;;
50821;SDS011;36794;51.212;6.980;2023-11-22T02:12:21;17.40;;;10.57;;
50821;SDS011;36794;51.212;6.980;2023-11-22T02:14:47;17.97;;;11.83;;
50821;SDS011;36794;51.212;6.980;2023-11-22T02:17:13;18.67;;;11.90;;
50821;SDS011;36794;51.212;6.980;2023-11-22T02:19:39;17.43;;;11.53;;
50821;SDS011;36794;51.212;6.980;2023-11-22T02:22:05;20.97;;;12.13;;
50821;SDS011;36794;51.212;6.980;2023-11-22T02:24:31;24.33;;;12.47;;
50821;SDS011;36794;51.212;6.980;2023-11-22T02:26:59;21.77;;;13.03;;
50821;SDS011;36794;51.212;6.980;2023-11-22T02:29:25;24.93;;;14.20;;
50821;SDS011;36794;51.212;6.980;2023-11-22T02:31:51;22.13;;;13.93;;
50821;SDS011;36794;51.212;6.980;2023-11-22T02:34:17;21.90;;;14.13;;
50821;SDS011;36794;51.212;6.980;2023-11-22T02:36:44;23.93;;;14.53;;
50821;SDS011;36794;51.212;6.980;2023-11-22T02:39:10;24.13;;;14.00;;
50821;SDS011;36794;51.212;6.980;2023-11-22T02:41:38;22.60;;;14.37;;
50821;SDS011;36794;51.212;6.980;2023-11-22T02:44:04;24.07;;;14.70;;
50821;SDS011;36794;51.212;6.980;2023-11-22T02:46:32;24.17;;;15.13;;
50821;SDS011;36794;51.212;6.980;2023-11-22T02:48:58;23.90;;;14.97;;
50821;SDS011;36794;51.212;6.980;2023-11-22T02:51:24;25.23;;;14.80;;
50821;SDS011;36794;51.212;6.980;2023-11-22T02:53:50;24.07;;;14.70;;
50821;SDS011;36794;51.212;6.980;2023-11-22T02:56:16;25.80;;;15.43;;
50821;SDS011;36794;51.212;6.980;2023-11-22T02:58:42;24.53;;;15.17;;
50821;SDS011;36794;51.212;6.980;2023-11-22T03:01:08;29.77;;;15.47;;
50821;SDS011;36794;51.212;6.980;2023-11-22T03:03:34;25.17;;;15.87;;
50821;SDS011;36794;51.212;6.980;2023-11-22T03:06:01;23.17;;;14.80;;
50821;SDS011;36794;51.212;6.980;2023-11-22T03:08:29;22.57;;;15.33;;
50821;SDS011;36794;51.212;6.980;2023-11-22T03:10:58;29.00;;;16.10;;
50821;SDS011;36794;51.212;6.980;2023-11-22T03:13:24;24.63;;;15.00;;
50821;SDS011;36794;51.212;6.980;2023-11-22T03:15:50;29.73;;;17.00;;
50821;SDS011;36794;51.212;6.980;2023-11-22T03:18:17;29.37;;;18.00;;
50821;SDS011;36794;51.212;6.980;2023-11-22T03:20:43;27.10;;;15.43;;
50821;SDS011;36794;51.212;6.980;2023-11-22T03:23:09;31.67;;;17.10;;
50821;SDS011;36794;51.212;6.980;2023-11-22T03:25:38;27.37;;;16.33;;
50821;SDS011;36794;51.212;6.980;2023-11-22T03:28:04;26.93;;;17.00;;
50821;SDS011;36794;51.212;6.980;2023-11-22T03:30:30;26.77;;;16.33;;
50821;SDS011;36794;51.212;6.980;2023-11-22T03:32:56;28.63;;;16.77;;
50821;SDS011;36794;51.212;6.980;2023-11-22T03:35:22;28.27;;;16.53;;
50821;SDS011;36794;51.212;6.980;2023-11-22T03:37:48;26.40;;;17.27;;
50821;SDS011;36794;51.212;6.980;2023-11-22T03:40:14;24.37;;;15.53;;
50821;SDS011;36794;51.212;6.980;2023-11-22T03:42:40;28.00;;;16.27;;
50821;SDS011;36794;51.212;6.980;2023-11-22T03:45:14;26.40;;;16.93;;
50821;SDS011;36794;51.212;6.980;2023-11-22T03:47:40;25.37;;;16.33;;
50821;SDS011;36794;51.212;6.980;2023-11-22T03:50:06;27.37;;;16.33;;
50821;SDS011;36794;51.212;6.980;2023-11-22T03:52:32;26.40;;;16.07;;
50821;SDS011;36794;51.212;6.980;2023-11-22T03:54:58;25.70;;;15.53;;
50821;SDS011;36794;51.212;6.980;2023-11-22T03:57:24;24.80;;;15.07;;
50821;SDS011;36794;51.212;6.980;2023-11-22T03:59:50;24.37;;;15.50;;
50821;SDS011;36794;51.212;6.980;2023-11-22T04:02:16;25.90;;;15.73;;
50821;SDS011;36794;51.212;6.980;2023-11-22T04:04:42;22.50;;;14.13;;
50821;SDS011;36794;51.212;6.980;2023-11-22T04:07:09;23.47;;;15.27;;
50821;SDS011;36794;51.212;6.980;2023-11-22T04:09:35;25.27;;;15.33;;
50821;SDS011;36794;51.212;6.980;2023-11-22T04:12:01;23.80;;;14.00;;
50821;SDS011;36794;51.212;6.980;2023-11-22T04:14:29;23.03;;;13.20;;
50821;SDS011;36794;51.212;6.980;2023-11-22T04:16:55;19.97;;;13.03;;
50821;SDS011;36794;51.212;6.980;2023-11-22T04:19:20;21.67;;;13.23;;
50821;SDS011;36794;51.212;6.980;2023-11-22T04:21:46;22.37;;;13.63;;
50821;SDS011;36794;51.212;6.980;2023-11-22T04:24:13;21.13;;;13.10;;
50821;SDS011;36794;51.212;6.980;2023-11-22T04:26:39;20.40;;;13.17;;
50821;SDS011;36794;51.212;6.980;2023-11-22T04:29:05;21.37;;;12.80;;
50821;SDS011;36794;51.212;6.980;2023-11-22T04:31:31;21.00;;;13.27;;
50821;SDS011;36794;51.212;6.980;2023-11-22T04:33:57;22.00;;;13.50;;
50821;SDS011;36794;51.212;6.980;2023-11-22T04:36:25;21.63;;;14.27;;
50821;SDS011;36794;51.212;6.980;2023-11-22T04:38:51;21.87;;;13.87;;
50821;SDS011;36794;51.212;6.980;2023-11-22T04:41:17;23.40;;;13.00;;
50821;SDS011;36794;51.212;6.980;2023-11-22T04:43:43;21.47;;;13.13;;
50821;SDS011;36794;51.212;6.980;2023-11-22T04:46:10;18.87;;;12.37;;
50821;SDS011;36794;51.212;6.980;2023-11-22T04:48:38;19.17;;;12.27;;
50821;SDS011;36794;51.212;6.980;2023-11-22T04:51:05;21.73;;;13.73;;
50821;SDS011;36794;51.212;6.980;2023-11-22T04:53:31;23.90;;;14.30;;
50821;SDS011;36794;51.212;6.980;2023-11-22T04:55:57;22.53;;;14.67;;
50821;SDS011;36794;51.212;6.980;2023-11-22T04:58:24;24.00;;;13.93;;
50821;SDS011;36794;51.212;6.980;2023-11-22T05:00:50;25.40;;;14.37;;
50821;SDS011;36794;51.212;6.980;2023-11-22T05:03:16;24.80;;;14.90;;
50821;SDS011;36794;51.212;6.980;2023-11-22T05:05:42;24.43;;;13.70;;
50821;SDS011;36794;51.212;6.980;2023-11-22T05:08:08;23.40;;;13.67;;
50821;SDS011;36794;51.212;6.980;2023-11-22T05:10:37;21.33;;;14.00;;
50821;SDS011;36794;51.212;6.980;2023-11-22T05:13:03;20.70;;;12.57;;
50821;SDS011;36794;51.212;6.980;2023-11-22T05:15:30;19.43;;;12.53;;
50821;SDS011;36794;51.212;6.980;2023-11-22T05:17:56;22.17;;;13.03;;
50821;SDS011;36794;51.212;6.980;2023-11-22T05:20:22;23.70;;;12.83;;
50821;SDS011;36794;51.212;6.980;2023-11-22T05:22:48;20.33;;;12.60;;
50821;SDS011;36794;51.212;6.980;2023-11-22T05:25:14;19.73;;;12.87;;
50821;SDS011;36794;51.212;6.980;2023-11-22T05:27:40;22.00;;;11.07;;
50821;SDS011;36794;51.212;6.980;2023-11-22T05:30:06;17.70;;;11.23;;
50821;SDS011;36794;51.212;6.980;2023-11-22T05:32:34;19.80;;;11.07;;
50821;SDS011;36794;51.212;6.980;2023-11-22T05:35:00;16.87;;;9.33;;
50821;SDS011;36794;51.212;6.980;2023-11-22T05:37:26;15.20;;;9.60;;
50821;SDS011;36794;51.212;6.980;2023-11-22T05:39:53;15.47;;;9.47;;
50821;SDS011;36794;51.212;6.980;2023-11-22T05:42:20;15.43;;;9.67;;
50821;SDS011;36794;51.212;6.980;2023-11-22T05:44:46;21.50;;;10.63;;
50821;SDS011;36794;51.212;6.980;2023-11-22T05:47:12;16.67;;;10.53;;
50821;SDS011;36794;51.212;6.980;2023-11-22T05:49:38;17.50;;;10.20;;
50821;SDS011;36794;51.212;6.980;2023-11-22T05:52:04;16.77;;;9.77;;
50821;SDS011;36794;51.212;6.980;2023-11-22T05:54:30;12.97;;;8.87;;
50821;SDS011;36794;51.212;6.980;2023-11-22T05:56:57;16.30;;;9.00;;
50821;SDS011;36794;51.212;6.980;2023-11-22T05:59:23;12.97;;;8.70;;
50821;SDS011;36794;51.212;6.980;2023-11-22T06:01:49;15.23;;;9.47;;
50821;SDS011;36794;51.212;6.980;2023-11-22T06:04:15;13.93;;;9.47;;
50821;SDS011;36794;51.212;6.980;2023-11-22T06:06:41;15.07;;;10.10;;
50821;SDS011;36794;51.212;6.980;2023-11-22T06:09:07;15.97;;;10.37;;
50821;SDS011;36794;51.212;6.980;2023-11-22T06:11:37;16.87;;;10.50;;
50821;SDS011;36794;51.212;6.980;2023-11-22T06:14:03;14.53;;;8.67;;
50821;SDS011;36794;51.212;6.980;2023-11-22T06:16:29;13.63;;;9.47;;
50821;SDS011;36794;51.212;6.980;2023-11-22T06:18:55;19.40;;;10.23;;
50821;SDS011;36794;51.212;6.980;2023-11-22T06:21:21;16.63;;;10.30;;
50821;SDS011;36794;51.212;6.980;2023-11-22T06:23:49;16.60;;;10.20;;
50821;SDS011;36794;51.212;6.980;2023-11-22T06:26:15;15.97;;;9.43;;
50821;SDS011;36794;51.212;6.980;2023-11-22T06:28:41;19.43;;;10.23;;
50821;SDS011;36794;51.212;6.980;2023-11-22T06:31:08;16.97;;;9.50;;
50821;SDS011;36794;51.212;6.980;2023-11-22T06:33:33;14.83;;;9.47;;
50821;SDS011;36794;51.212;6.980;2023-11-22T06:36:01;18.63;;;10.20;;
50821;SDS011;36794;51.212;6.980;2023-11-22T06:38:27;14.57;;;9.07;;
50821;SDS011;36794;51.212;6.980;2023-11-22T06:40:53;13.87;;;8.97;;
50821;SDS011;36794;51.212;6.980;2023-11-22T06:43:19;15.83;;;9.63;;
50821;SDS011;36794;51.212;6.980;2023-11-22T06:45:45;15.23;;;9.83;;
50821;SDS011;36794;51.212;6.980;2023-11-22T06:48:11;13.83;;;9.37;;
50821;SDS011;36794;51.212;6.980;2023-11-22T06:50:37;16.60;;;9.73;;
50821;SDS011;36794;51.212;6.980;2023-11-22T06:53:03;16.73;;;10.40;;
50821;SDS011;36794;51.212;6.980;2023-11-22T06:55:29;21.87;;;11.03;;
50821;SDS011;36794;51.212;6.980;2023-11-22T06:57:56;19.00;;;10.27;;
50821;SDS011;36794;51.212;6.980;2023-11-22T07:00:21;15.37;;;9.93;;
50821;SDS011;36794;51.212;6.980;2023-11-22T07:02:47;31.63;;;16.87;;
50821;SDS011;36794;51.212;6.980;2023-11-22T07:05:13;23.20;;;11.07;;
50821;SDS011;36794;51.212;6.980;2023-11-22T07:07:39;14.87;;;9.20;;
50821;SDS011;36794;51.212;6.980;2023-11-22T07:10:06;15.97;;;9.63;;
50821;SDS011;36794;51.212;6.980;2023-11-22T07:12:32;18.37;;;10.70;;
50821;SDS011;36794;51.212;6.980;2023-11-22T07:14:59;15.73;;;9.90;;
50821;SDS011;36794;51.212;6.980;2023-11-22T07:17:25;15.77;;;9.10;;
50821;SDS011;36794;51.212;6.980;2023-11-22T07:19:53;14.40;;;8.97;;
50821;SDS011;36794;51.212;6.980;2023-11-22T07:22:19;22.10;;;11.30;;
50821;SDS011;36794;51.212;6.980;2023-11-22T07:24:47;23.63;;;12.30;;
50821;SDS011;36794;51.212;6.980;2023-11-22T07:27:16;20.87;;;10.83;;
50821;SDS011;36794;51.212;6.980;2023-11-22T07:29:42;18.77;;;11.33;;
50821;SDS011;36794;51.212;6.980;2023-11-22T07:32:09;19.07;;;11.50;;
50821;SDS011;36794;51.212;6.980;2023-11-22T07:34:35;17.47;;;10.60;;
50821;SDS011;36794;51.212;6.980;2023-11-22T07:37:01;17.53;;;10.67;;
50821;SDS011;36794;51.212;6.980;2023-11-22T07:39:27;17.93;;;10.30;;
50821;SDS011;36794;51.212;6.980;2023-11-22T07:41:54;16.00;;;9.90;;
50821;SDS011;36794;51.212;6.980;2023-11-22T07:44:32;16.23;;;9.97;;
50821;SDS011;36794;51.212;6.980;2023-11-22T07:47:01;15.00;;;9.73;;
50821;SDS011;36794;51.212;6.980;2023-11-22T07:49:30;17.40;;;10.17;;
50821;SDS011;36794;51.212;6.980;2023-11-22T07:52:03;16.13;;;10.37;;
50821;SDS011;36794;51.212;6.980;2023-11-22T07:54:38;17.97;;;10.57;;
50821;SDS011;36794;51.212;6.980;2023-11-22T07:57:04;20.67;;;11.33;;
50821;SDS011;36794;51.212;6.980;2023-11-22T07:59:30;19.77;;;11.17;;
50821;SDS011;36794;51.212;6.980;2023-11-22T08:01:56;21.10;;;10.47;;
50821;SDS011;36794;51.212;6.980;2023-11-22T08:04:22;18.40;;;9.77;;
50821;SDS011;36794;51.212;6.980;2023-11-22T08:06:59;15.70;;;8.50;;
50821;SDS011;36794;51.212;6.980;2023-11-22T08:09:26;16.03;;;8.23;;
50821;SDS011;36794;51.212;6.980;2023-11-22T08:12:00;15.13;;;8.07;;
50821;SDS011;36794;51.212;6.980;2023-11-22T08:14:27;14.37;;;9.47;;
50821;SDS011;36794;51.212;6.980;2023-11-22T08:16:54;20.73;;;9.57;;
50821;SDS011;36794;51.212;6.980;2023-11-22T08:19:20;15.80;;;8.53;;
50821;SDS011;36794;51.212;6.980;2023-11-22T08:21:48;11.97;;;8.50;;
50821;SDS011;36794;51.212;6.980;2023-11-22T08:24:17;12.60;;;8.47;;
50821;SDS011;36794;51.212;6.980;2023-11-22T08:26:46;13.27;;;7.93;;
50821;SDS011;36794;51.212;6.980;2023-11-22T08:29:12;12.77;;;7.37;;
50821;SDS011;36794;51.212;6.980;2023-11-22T08:31:48;15.13;;;7.37;;
50821;SDS011;36794;51.212;6.980;2023-11-22T08:34:17;17.33;;;7.83;;
50821;SDS011;36794;51.212;6.980;2023-11-22T08:36:50;20.70;;;9.27;;
50821;SDS011;36794;51.212;6.980;2023-11-22T08:39:19;13.77;;;7.17;;
50821;SDS011;36794;51.212;6.980;2023-11-22T08:41:45;10.87;;;7.33;;
50821;SDS011;36794;51.212;6.980;2023-11-22T08:44:12;14.13;;;8.50;;
50821;SDS011;36794;51.212;6.980;2023-11-22T08:46:38;11.37;;;6.87;;
50821;SDS011;36794;51.212;6.980;2023-11-22T08:49:07;13.43;;;7.03;;
50821;SDS011;36794;51.212;6.980;2023-11-22T08:51:36;11.97;;;7.07;;
50821;SDS011;36794;51.212;6.980;2023-11-22T08:54:02;10.83;;;7.13;;
50821;SDS011;36794;51.212;6.980;2023-11-22T08:56:29;11.73;;;6.83;;
50821;SDS011;36794;51.212;6.980;2023-11-22T08:58:55;9.80;;;6.73;;
50821;SDS011;36794;51.212;6.980;2023-11-22T09:01:21;10.50;;;6.57;;
50821;SDS011;36794;51.212;6.980;2023-11-22T09:03:47;11.00;;;6.70;;
50821;SDS011;36794;51.212;6.980;2023-11-22T09:06:16;10.17;;;6.80;;
50821;SDS011;36794;51.212;6.980;2023-11-22T09:08:49;9.87;;;6.37;;
50821;SDS011;36794;51.212;6.980;2023-11-22T09:11:18;11.30;;;6.63;;
50821;SDS011;36794;51.212;6.980;2023-11-22T09:13:47;10.67;;;6.17;;
50821;SDS011;36794;51.212;6.980;2023-11-22T09:16:21;10.80;;;5.90;;
50821;SDS011;36794;51.212;6.980;2023-11-22T09:19:08;15.63;;;6.53;;
50821;SDS011;36794;51.212;6.980;2023-11-22T09:21:34;11.20;;;6.57;;
50821;SDS011;36794;51.212;6.980;2023-11-22T09:24:00;13.60;;;6.87;;
50821;SDS011;36794;51.212;6.980;2023-11-22T09:26:30;14.03;;;6.80;;
50821;SDS011;36794;51.212;6.980;2023-11-22T09:28:56;14.33;;;6.93;;
50821;SDS011;36794;51.212;6.980;2023-11-22T09:31:26;13.67;;;6.97;;
50821;SDS011;36794;51.212;6.980;2023-11-22T09:33:53;11.73;;;6.87;;
50821;SDS011;36794;51.212;6.980;2023-11-22T09:36:21;9.90;;;4.90;;
50821;SDS011;36794;51.212;6.980;2023-11-22T09:38:49;9.27;;;5.23;;
50821;SDS011;36794;51.212;6.980;2023-11-22T09:41:16;8.90;;;5.03;;
50821;SDS011;36794;51.212;6.980;2023-11-22T09:43:43;10.23;;;5.00;;
50821;SDS011;36794;51.212;6.980;2023-11-22T09:46:11;8.17;;;5.03;;
50821;SDS011;36794;51.212;6.980;2023-11-22T09:48:39;7.93;;;4.20;;
50821;SDS011;36794;51.212;6.980;2023-11-22T09:53:47;7.00;;;4.37;;
50821;SDS011;36794;51.212;6.980;2023-11-22T09:56:30;5.83;;;3.40;;
50821;SDS011;36794;51.212;6.980;2023-11-22T09:58:58;8.17;;;4.00;;
50821;SDS011;36794;51.212;6.980;2023-11-22T10:01:25;6.37;;;3.67;;
50821;SDS011;36794;51.212;6.980;2023-11-22T10:03:53;8.53;;;3.43;;
50821;SDS011;36794;51.212;6.980;2023-11-22T10:06:19;6.40;;;4.10;;
50821;SDS011;36794;51.212;6.980;2023-11-22T10:08:51;8.10;;;3.63;;
50821;SDS011;36794;51.212;6.980;2023-11-22T10:11:20;7.93;;;4.00;;
50821;SDS011;36794;51.212;6.980;2023-11-22T10:13:47;8.77;;;4.07;;
50821;SDS011;36794;51.212;6.980;2023-11-22T10:16:13;6.97;;;4.03;;
50821;SDS011;36794;51.212;6.980;2023-11-22T10:18:44;8.53;;;3.80;;
50821;SDS011;36794;51.212;6.980;2023-11-22T10:21:29;10.07;;;3.70;;
50821;SDS011;36794;51.212;6.980;2023-11-22T10:23:57;8.57;;;4.00;;
50821;SDS011;36794;51.212;6.980;2023-11-22T10:26:24;10.47;;;3.43;;
50821;SDS011;36794;51.212;6.980;2023-11-22T10:28:50;8.33;;;4.00;;
50821;SDS011;36794;51.212;6.980;2023-11-22T10:31:17;7.13;;;3.33;;
50821;SDS011;36794;51.212;6.980;2023-11-22T10:33:46;6.23;;;3.97;;
50821;SDS011;36794;51.212;6.980;2023-11-22T10:36:13;7.07;;;3.97;;
50821;SDS011;36794;51.212;6.980;2023-11-22T10:38:40;8.57;;;4.70;;
50821;SDS011;36794;51.212;6.980;2023-11-22T10:41:07;7.87;;;3.73;;
50821;SDS011;36794;51.212;6.980;2023-11-22T10:43:36;8.53;;;4.23;;
50821;SDS011;36794;51.212;6.980;2023-11-22T10:46:02;5.47;;;3.63;;
50821;SDS011;36794;51.212;6.980;2023-11-22T10:48:30;6.83;;;3.60;;
50821;SDS011;36794;51.212;6.980;2023-11-22T10:50:57;5.87;;;3.50;;
50821;SDS011;36794;51.212;6.980;2023-11-22T10:53:32;9.10;;;3.43;;
50821;SDS011;36794;51.212;6.980;2023-11-22T10:56:03;6.10;;;3.70;;
50821;SDS011;36794;51.212;6.980;2023-11-22T10:58:31;8.33;;;3.97;;
50821;SDS011;36794;51.212;6.980;2023-11-22T11:00:58;9.73;;;3.90;;
50821;SDS011;36794;51.212;6.980;2023-11-22T11:03:25;7.13;;;4.43;;
50821;SDS011;36794;51.212;6.980;2023-11-22T11:06:03;8.93;;;4.50;;
50821;SDS011;36794;51.212;6.980;2023-11-22T11:08:30;6.87;;;3.77;;
50821;SDS011;36794;51.212;6.980;2023-11-22T11:10:56;10.10;;;3.93;;
50821;SDS011;36794;51.212;6.980;2023-11-22T11:13:23;7.20;;;3.60;;
50821;SDS011;36794;51.212;6.980;2023-11-22T11:15:50;5.37;;;3.23;;
50821;SDS011;36794;51.212;6.980;2023-11-22T11:18:20;9.83;;;3.77;;
50821;SDS011;36794;51.212;6.980;2023-11-22T11:20:50;6.60;;;3.90;;
50821;SDS011;36794;51.212;6.980;2023-11-22T11:23:20;6.77;;;3.27;;
50821;SDS011;36794;51.212;6.980;2023-11-22T11:25:51;8.27;;;4.00;;
50821;SDS011;36794;51.212;6.980;2023-11-22T11:28:18;7.20;;;3.80;;
50821;SDS011;36794;51.212;6.980;2023-11-22T11:30:46;5.87;;;3.47;;
50821;SDS011;36794;51.212;6.980;2023-11-22T11:33:13;5.77;;;3.13;;
50821;SDS011;36794;51.212;6.980;2023-11-22T11:35:43;11.03;;;3.63;;
50821;SDS011;36794;51.212;6.980;2023-11-22T11:38:15;9.87;;;3.50;;
50821;SDS011;36794;51.212;6.980;2023-11-22T11:40:42;8.30;;;3.50;;
50821;SDS011;36794;51.212;6.980;2023-11-22T11:43:11;5.40;;;3.30;;
50821;SDS011;36794;51.212;6.980;2023-11-22T11:45:38;7.80;;;3.10;;
50821;SDS011;36794;51.212;6.980;2023-11-22T11:48:05;7.67;;;3.13;;
50821;SDS011;36794;51.212;6.980;2023-11-22T11:50:31;4.43;;;2.83;;
50821;SDS011;36794;51.212;6.980;2023-11-22T11:52:57;8.30;;;2.90;;
50821;SDS011;36794;51.212;6.980;2023-11-22T11:55:23;5.47;;;2.70;;
50821;SDS011;36794;51.212;6.980;2023-11-22T11:57:52;5.00;;;2.93;;
50821;SDS011;36794;51.212;6.980;2023-11-22T12:00:19;5.93;;;3.10;;
50821;SDS011;36794;51.212;6.980;2023-11-22T12:02:48;10.30;;;4.07;;
50821;SDS011;36794;51.212;6.980;2023-11-22T12:05:14;6.27;;;3.10;;
50821;SDS011;36794;51.212;6.980;2023-11-22T12:07:40;5.03;;;2.27;;
50821;SDS011;36794;51.212;6.980;2023-11-22T12:10:06;6.60;;;2.77;;
50821;SDS011;36794;51.212;6.980;2023-11-22T12:12:33;6.93;;;3.23;;
50821;SDS011;36794;51.212;6.980;2023-11-22T12:15:00;4.90;;;2.50;;
50821;SDS011;36794;51.212;6.980;2023-11-22T12:17:26;8.13;;;2.90;;
50821;SDS011;36794;51.212;6.980;2023-11-22T12:19:53;5.90;;;2.73;;
50821;SDS011;36794;51.212;6.980;2023-11-22T12:22:20;5.90;;;2.73;;
50821;SDS011;36794;51.212;6.980;2023-11-22T12:24:46;5.90;;;3.07;;
50821;SDS011;36794;51.212;6.980;2023-11-22T12:27:12;5.13;;;2.77;;
50821;SDS011;36794;51.212;6.980;2023-11-22T12:29:39;4.80;;;2.50;;
50821;SDS011;36794;51.212;6.980;2023-11-22T12:32:08;4.10;;;2.80;;
50821;SDS011;36794;51.212;6.980;2023-11-22T12:34:34;4.07;;;2.30;;
50821;SDS011;36794;51.212;6.980;2023-11-22T12:37:03;4.50;;;2.77;;
50821;SDS011;36794;51.212;6.980;2023-11-22T12:39:29;5.70;;;2.90;;
50821;SDS011;36794;51.212;6.980;2023-11-22T12:41:57;3.40;;;2.40;;
50821;SDS011;36794;51.212;6.980;2023-11-22T12:44:46;5.07;;;2.50;;
50821;SDS011;36794;51.212;6.980;2023-11-22T12:47:13;7.27;;;3.03;;
50821;SDS011;36794;51.212;6.980;2023-11-22T12:49:44;5.97;;;3.40;;
50821;SDS011;36794;51.212;6.980;2023-11-22T12:52:14;5.15;;;2.75;;
50821;SDS011;36794;51.212;6.980;2023-11-22T12:54:41;4.47;;;2.57;;
50821;SDS011;36794;51.212;6.980;2023-11-22T12:57:12;5.00;;;2.87;;
50821;SDS011;36794;51.212;6.980;2023-11-22T12:59:38;9.07;;;3.30;;
50821;SDS011;36794;51.212;6.980;2023-11-22T13:02:06;4.53;;;2.80;;
50821;SDS011;36794;51.212;6.980;2023-11-22T13:04:32;7.87;;;3.60;;
50821;SDS011;36794;51.212;6.980;2023-11-22T13:06:58;7.60;;;3.10;;
50821;SDS011;36794;51.212;6.980;2023-11-22T13:09:25;5.97;;;3.23;;
50821;SDS011;36794;51.212;6.980;2023-11-22T13:11:51;5.30;;;2.23;;
50821;SDS011;36794;51.212;6.980;2023-11-22T13:14:17;3.20;;;1.80;;
50821;SDS011;36794;51.212;6.980;2023-11-22T13:16:43;5.73;;;2.30;;
50821;SDS011;36794;51.212;6.980;2023-11-22T13:19:10;2.93;;;1.60;;
50821;SDS011;36794;51.212;6.980;2023-11-22T13:21:36;3.63;;;1.43;;
50821;SDS011;36794;51.212;6.980;2023-11-22T13:24:02;3.20;;;1.57;;
50821;SDS011;36794;51.212;6.980;2023-11-22T13:26:31;4.63;;;1.30;;
50821;SDS011;36794;51.212;6.980;2023-11-22T13:28:59;2.60;;;1.50;;
50821;SDS011;36794;51.212;6.980;2023-11-22T13:31:25;6.23;;;1.67;;
50821;SDS011;36794;51.212;6.980;2023-11-22T13:33:51;3.57;;;1.73;;
50821;SDS011;36794;51.212;6.980;2023-11-22T13:36:17;7.50;;;2.60;;
50821;SDS011;36794;51.212;6.980;2023-11-22T13:38:43;7.40;;;2.30;;
50821;SDS011;36794;51.212;6.980;2023-11-22T13:41:09;10.77;;;2.33;;
50821;SDS011;36794;51.212;6.980;2023-11-22T13:43:36;4.83;;;1.83;;
50821;SDS011;36794;51.212;6.980;2023-11-22T13:46:02;3.47;;;2.00;;
50821;SDS011;36794;51.212;6.980;2023-11-22T13:48:28;4.27;;;1.80;;
50821;SDS011;36794;51.212;6.980;2023-11-22T13:50:54;5.50;;;1.70;;
50821;SDS011;36794;51.212;6.980;2023-11-22T13:53:21;3.97;;;1.40;;
50821;SDS011;36794;51.212;6.980;2023-11-22T13:55:47;6.27;;;1.20;;
50821;SDS011;36794;51.212;6.980;2023-11-22T13:58:16;3.00;;;1.20;;
50821;SDS011;36794;51.212;6.980;2023-11-22T14:00:42;3.80;;;1.37;;
50821;SDS011;36794;51.212;6.980;2023-11-22T14:03:08;3.33;;;1.40;;
50821;SDS011;36794;51.212;6.980;2023-11-22T14:05:36;7.70;;;2.47;;
50821;SDS011;36794;51.212;6.980;2023-11-22T14:08:03;2.63;;;1.10;;
50821;SDS011;36794;51.212;6.980;2023-11-22T14:10:29;3.13;;;1.60;;
50821;SDS011;36794;51.212;6.980;2023-11-22T14:12:55;3.37;;;1.77;;
50821;SDS011;36794;51.212;6.980;2023-11-22T14:15:25;3.33;;;1.60;;
50821;SDS011;36794;51.212;6.980;2023-11-22T14:17:52;3.67;;;1.73;;
50821;SDS011;36794;51.212;6.980;2023-11-22T14:20:18;4.43;;;2.27;;
50821;SDS011;36794;51.212;6.980;2023-11-22T14:22:46;5.07;;;2.27;;
50821;SDS011;36794;51.212;6.980;2023-11-22T14:25:13;3.70;;;1.93;;
50821;SDS011;36794;51.212;6.980;2023-11-22T14:27:41;2.47;;;1.83;;
50821;SDS011;36794;51.212;6.980;2023-11-22T14:30:07;4.87;;;2.33;;
50821;SDS011;36794;51.212;6.980;2023-11-22T14:32:34;4.40;;;2.00;;
50821;SDS011;36794;51.212;6.980;2023-11-22T14:35:01;4.87;;;1.80;;